Time;durP1;ratioP1;P1;durP2;ratioP2;P2;SDS_P1;SDS_P2;PMS_P1;PMS_P2;Temp;Humidity;BMP_temperature;BMP_pressure;BME280_temperature;BME280_humidity;BME280_pressure;Samples;Min_cycle;Max_cycle;Signal;HPM_P1;HPM_P2
2022/03/25 00:01:23;;;;;;;32.90;20.73;;;;;;;10.38;85.25;100074.78;4969984;28;20200;-79
2022/03/25 00:03:57;;;;;;;34.13;20.70;;;;;;;10.40;85.58;100078.19;4977002;28;20203;-78
2022/03/25 00:06:27;;;;;;;34.03;22.03;;;;;;;10.20;86.21;100081.78;4964887;28;20225;-78
2022/03/25 00:08:55;;;;;;;36.10;21.67;;;;;;;10.04;87.82;100086.09;4972086;28;20231;-78
2022/03/25 00:11:24;;;;;;;32.53;20.47;;;;;;;9.97;89.25;100079.38;4972720;28;20314;-78
2022/03/25 00:13:57;;;;;;;32.53;22.03;;;;;;;9.92;90.02;100084.00;4973821;28;20214;-78
2022/03/25 00:16:27;;;;;;;31.87;21.77;;;;;;;10.14;88.61;100082.09;4970783;28;20199;-78
2022/03/25 00:18:57;;;;;;;36.97;21.40;;;;;;;10.07;89.46;100085.94;4975364;28;20249;-78
2022/03/25 00:21:26;;;;;;;35.57;21.40;;;;;;;10.01;90.00;100084.44;4964360;28;20282;-78
2022/03/25 00:23:56;;;;;;;35.87;21.60;;;;;;;10.07;89.79;100088.59;4975486;28;20195;-78
2022/03/25 00:26:25;;;;;;;32.03;19.77;;;;;;;10.20;89.53;100086.22;4950811;28;20231;-77
2022/03/25 00:28:57;;;;;;;36.20;20.63;;;;;;;10.21;88.87;100090.56;4947312;29;20625;-78
2022/03/25 00:31:26;;;;;;;31.37;19.30;;;;;;;10.32;88.23;100080.34;4945187;28;20307;-77
2022/03/25 00:33:55;;;;;;;32.33;20.63;;;;;;;10.18;88.27;100086.28;4951864;28;20197;-78
2022/03/25 00:36:26;;;;;;;34.97;19.40;;;;;;;10.19;88.78;100085.34;4941752;29;20239;-78
2022/03/25 00:38:59;;;;;;;32.13;19.47;;;;;;;10.15;89.37;100080.28;4949217;29;20283;-78
2022/03/25 00:41:36;;;;;;;30.17;19.07;;;;;;;10.20;89.55;100080.91;4904576;29;20293;-78
2022/03/25 00:44:06;;;;;;;35.33;20.27;;;;;;;10.05;90.52;100079.88;4952132;28;20242;-78
2022/03/25 00:46:35;;;;;;;33.17;19.70;;;;;;;10.10;91.16;100074.34;4950942;28;20639;-77
2022/03/25 00:49:06;;;;;;;33.43;20.77;;;;;;;9.77;93.35;100069.72;4970167;28;20574;-78
2022/03/25 00:51:42;;;;;;;35.10;20.17;;;;;;;9.68;93.89;100078.06;4977355;28;20220;-78
2022/03/25 00:54:12;;;;;;;32.07;19.43;;;;;;;9.75;94.19;100077.72;4977331;28;20196;-78
2022/03/25 00:56:40;;;;;;;33.40;19.43;;;;;;;9.73;94.29;100074.25;4968326;28;20219;-78
2022/03/25 00:59:09;;;;;;;31.87;19.93;;;;;;;9.78;94.74;100071.41;4970602;28;20215;-78
2022/03/25 01:01:39;;;;;;;33.20;19.73;;;;;;;9.77;95.10;100072.34;4975773;28;20288;-78
2022/03/25 01:04:09;;;;;;;36.93;19.67;;;;;;;9.78;94.69;100071.41;4971843;28;20207;-78
2022/03/25 01:06:37;;;;;;;33.00;19.37;;;;;;;9.74;94.89;100073.31;4971682;28;20196;-78
2022/03/25 01:09:09;;;;;;;32.57;19.60;;;;;;;9.79;94.73;100075.78;4976868;28;20294;-77
2022/03/25 01:11:37;;;;;;;37.03;19.63;;;;;;;9.83;93.97;100071.19;4970110;28;20223;-77
2022/03/25 01:14:08;;;;;;;34.87;20.10;;;;;;;9.83;93.58;100072.03;5051867;28;20460;-78
2022/03/25 01:16:36;;;;;;;30.87;18.40;;;;;;;9.86;93.35;100071.06;4973999;28;20288;-78
2022/03/25 01:19:05;;;;;;;38.03;19.93;;;;;;;9.84;93.54;100068.47;4973148;28;20239;-78
2022/03/25 01:21:34;;;;;;;34.30;19.53;;;;;;;9.88;93.32;100071.84;4972369;28;20196;-78
2022/03/25 01:24:04;;;;;;;36.20;20.17;;;;;;;9.85;93.83;100064.94;4974500;28;20278;-78
2022/03/25 01:26:35;;;;;;;33.03;19.83;;;;;;;9.89;92.97;100052.41;4972100;28;20230;-79
2022/03/25 01:29:04;;;;;;;33.07;19.60;;;;;;;9.88;93.30;100063.91;4974382;28;20208;-77
2022/03/25 01:31:34;;;;;;;30.40;19.80;;;;;;;9.89;93.17;100055.91;4968860;28;20257;-78
2022/03/25 01:34:02;;;;;;;34.50;20.13;;;;;;;9.93;92.59;100057.47;4976064;28;20196;-78
2022/03/25 01:36:31;;;;;;;35.57;19.17;;;;;;;10.08;92.04;100061.19;4966238;28;20207;-78
2022/03/25 01:39:01;;;;;;;35.70;18.60;;;;;;;9.91;91.28;100058.47;5029572;28;20229;-77
2022/03/25 01:41:29;;;;;;;35.63;19.40;;;;;;;9.86;91.79;100045.47;5030055;28;20244;-78
2022/03/25 01:44:02;;;;;;;33.90;18.80;;;;;;;9.92;92.58;100046.94;4954655;29;20228;-78
2022/03/25 01:46:32;;;;;;;33.47;19.17;;;;;;;9.83;92.91;100050.03;4952754;29;20291;-77
2022/03/25 01:49:02;;;;;;;35.70;18.40;;;;;;;10.04;92.10;100041.09;4948883;29;20731;-77
2022/03/25 01:51:34;;;;;;;33.90;19.10;;;;;;;9.96;91.52;100045.88;4947947;29;20692;-78
2022/03/25 01:54:04;;;;;;;32.03;19.70;;;;;;;9.93;91.12;100049.53;4949169;29;20196;-78
2022/03/25 01:56:34;;;;;;;32.03;18.80;;;;;;;9.92;91.48;100042.50;4960983;28;20258;-78
2022/03/25 01:59:05;;;;;;;33.47;19.97;;;;;;;9.69;92.61;100045.38;5005086;28;20293;-79
2022/03/25 02:01:34;;;;;;;37.27;20.20;;;;;;;9.70;93.66;100042.66;4997783;28;20203;-78
2022/03/25 02:04:04;;;;;;;31.43;19.50;;;;;;;9.46;94.15;100043.81;4975564;28;20277;-79
2022/03/25 02:06:33;;;;;;;35.00;19.27;;;;;;;9.67;94.13;100049.91;4970254;28;20278;-79
2022/03/25 02:09:01;;;;;;;37.93;20.07;;;;;;;9.40;95.11;100047.56;4972855;28;20227;-78
2022/03/25 02:11:31;;;;;;;36.63;20.13;;;;;;;9.36;95.77;100053.03;4972843;28;20247;-78
2022/03/25 02:13:59;;;;;;;38.47;20.53;;;;;;;9.36;96.73;100050.41;4972331;28;20752;-79
2022/03/25 02:16:37;;;;;;;36.37;20.70;;;;;;;9.22;97.74;100044.88;4972914;28;20204;-78
2022/03/25 02:19:06;;;;;;;37.77;20.47;;;;;;;9.15;98.55;100052.22;4972708;28;20638;-79
2022/03/25 02:21:38;;;;;;;35.73;19.93;;;;;;;9.34;98.40;100041.69;4972539;28;20196;-78
2022/03/25 02:24:08;;;;;;;32.10;19.70;;;;;;;9.33;98.08;100032.03;4969122;28;20211;-78
2022/03/25 02:26:38;;;;;;;32.83;19.30;;;;;;;9.26;98.39;100033.22;4972838;28;20204;-78
2022/03/25 02:29:10;;;;;;;32.60;19.80;;;;;;;9.31;97.85;100033.91;4975184;28;20192;-78
2022/03/25 02:31:39;;;;;;;34.53;20.80;;;;;;;9.20;98.17;100041.44;5032586;28;20217;-79
2022/03/25 02:34:14;;;;;;;37.10;20.77;;;;;;;9.17;98.52;100047.75;5026484;28;20194;-79
2022/03/25 02:36:46;;;;;;;35.30;21.13;;;;;;;9.12;98.83;100047.94;5031167;28;20229;-79
2022/03/25 02:39:17;;;;;;;37.37;20.13;;;;;;;8.95;99.87;100042.50;5024844;28;20673;-78
2022/03/25 02:41:45;;;;;;;34.13;20.27;;;;;;;8.83;100.00;100043.03;5032051;28;20216;-79
2022/03/25 02:44:14;;;;;;;34.37;20.37;;;;;;;8.95;100.00;100054.88;5027114;28;20312;-78
2022/03/25 02:46:43;;;;;;;42.40;20.67;;;;;;;8.88;100.00;100049.00;5026086;28;20190;-79
2022/03/25 02:49:14;;;;;;;33.13;20.77;;;;;;;8.85;100.00;100047.31;5013701;28;20219;-78
2022/03/25 02:51:46;;;;;;;35.67;20.07;;;;;;;9.03;100.00;100050.97;5017413;28;20231;-78
2022/03/25 02:54:15;;;;;;;32.80;19.97;;;;;;;9.09;100.00;100050.72;4972244;28;20196;-78
2022/03/25 02:56:43;;;;;;;38.20;19.67;;;;;;;9.10;99.95;100051.56;4973175;28;20227;-78
2022/03/25 02:59:12;;;;;;;32.27;20.37;;;;;;;9.11;100.00;100050.63;4973603;28;20196;-78
2022/03/25 03:01:40;;;;;;;38.50;20.20;;;;;;;9.12;99.45;100050.56;4974229;28;20196;-78
2022/03/25 03:04:09;;;;;;;30.43;19.77;;;;;;;9.22;98.95;100045.75;4978178;28;20196;-79
2022/03/25 03:06:38;;;;;;;37.23;19.83;;;;;;;8.97;99.85;100056.50;4972652;28;20196;-79
2022/03/25 03:09:08;;;;;;;34.37;19.37;;;;;;;8.87;100.00;100060.47;4970635;28;20203;-79
2022/03/25 03:11:37;;;;;;;34.50;20.50;;;;;;;8.80;100.00;100054.59;4969556;28;20211;-79
2022/03/25 03:14:06;;;;;;;32.57;19.90;;;;;;;8.84;100.00;100056.19;4970619;28;20393;-79
2022/03/25 03:16:34;;;;;;;39.37;19.67;;;;;;;8.80;100.00;100049.31;4957191;28;20257;-78
2022/03/25 03:19:09;;;;;;;34.90;20.30;;;;;;;8.86;100.00;100053.47;4971387;28;20196;-78
2022/03/25 03:21:38;;;;;;;34.97;19.50;;;;;;;8.91;100.00;100048.88;5050050;28;20219;-78
2022/03/25 03:24:09;;;;;;;38.17;20.80;;;;;;;8.87;100.00;100056.03;5045539;28;20251;-79
2022/03/25 03:26:38;;;;;;;36.33;21.17;;;;;;;8.85;100.00;100060.53;5074769;28;20188;-78
2022/03/25 03:29:10;;;;;;;36.87;20.43;;;;;;;8.78;100.00;100067.03;5071535;28;20192;-78
2022/03/25 03:31:38;;;;;;;37.27;19.63;;;;;;;8.83;100.00;100057.09;5065389;28;20189;-78
2022/03/25 03:34:07;;;;;;;33.47;19.07;;;;;;;8.86;100.00;100056.97;5059766;28;20192;-78
2022/03/25 03:36:35;;;;;;;36.43;20.30;;;;;;;8.77;100.00;100053.84;5058344;28;20192;-78
2022/03/25 03:39:04;;;;;;;36.83;21.63;;;;;;;8.62;100.00;100067.72;5063894;28;20215;-78
2022/03/25 03:41:34;;;;;;;35.57;21.10;;;;;;;8.62;100.00;100065.94;5033036;28;20194;-78
2022/03/25 03:44:02;;;;;;;37.10;20.50;;;;;;;8.51;100.00;100066.38;5048106;28;20213;-78
2022/03/25 03:46:31;;;;;;;37.43;21.33;;;;;;;8.45;100.00;100061.34;5048515;28;20223;-78
2022/03/25 03:48:59;;;;;;;37.43;20.80;;;;;;;8.47;100.00;100061.28;5046800;28;20200;-78
2022/03/25 03:51:28;;;;;;;38.50;20.97;;;;;;;8.27;100.00;100065.53;4979926;28;20215;-77
2022/03/25 03:53:58;;;;;;;38.70;19.87;;;;;;;8.41;100.00;100064.19;4949019;28;20247;-78
2022/03/25 03:56:26;;;;;;;37.43;21.07;;;;;;;8.32;100.00;100065.38;4946618;28;20204;-78
2022/03/25 03:58:56;;;;;;;34.77;19.80;;;;;;;8.38;100.00;100061.66;4947462;29;20199;-78
2022/03/25 04:01:24;;;;;;;39.63;21.50;;;;;;;8.23;100.00;100053.41;4953309;28;20283;-78
2022/03/25 04:03:53;;;;;;;37.77;20.37;;;;;;;8.35;100.00;100057.34;4968656;28;20200;-78
2022/03/25 04:06:22;;;;;;;35.17;21.07;;;;;;;8.37;100.00;100067.84;4967597;28;20207;-78
2022/03/25 04:08:50;;;;;;;36.60;20.10;;;;;;;8.42;100.00;100063.25;4970255;28;20196;-78
2022/03/25 04:11:19;;;;;;;34.07;20.63;;;;;;;8.23;100.00;100065.75;4971373;28;20195;-78
2022/03/25 04:13:48;;;;;;;36.50;20.73;;;;;;;8.33;100.00;100064.44;4968010;28;20706;-77
2022/03/25 04:16:19;;;;;;;40.40;22.03;;;;;;;8.35;100.00;100069.69;4972414;28;20664;-78
2022/03/25 04:18:48;;;;;;;35.80;21.13;;;;;;;8.14;100.00;100074.88;4974673;28;20206;-78
2022/03/25 04:21:17;;;;;;;38.10;21.40;;;;;;;8.13;100.00;100075.81;4969785;28;20277;-78
2022/03/25 04:23:45;;;;;;;40.87;21.90;;;;;;;8.10;100.00;100075.91;4975005;28;20195;-78
2022/03/25 04:26:13;;;;;;;38.97;21.40;;;;;;;8.11;100.00;100069.72;4969788;28;20204;-78
2022/03/25 04:28:42;;;;;;;38.53;21.67;;;;;;;7.98;100.00;100074.59;4967351;28;20674;-78
2022/03/25 04:31:10;;;;;;;38.37;21.03;;;;;;;8.06;100.00;100076.09;4965471;28;20194;-78
2022/03/25 04:33:40;;;;;;;39.17;22.17;;;;;;;7.80;100.00;100071.81;4971314;28;20220;-78
2022/03/25 04:36:11;;;;;;;40.43;21.63;;;;;;;7.77;100.00;100069.28;4970501;28;20200;-78
2022/03/25 04:38:39;;;;;;;43.67;21.97;;;;;;;7.71;100.00;100078.28;4976365;28;20188;-78
2022/03/25 04:41:10;;;;;;;42.97;22.13;;;;;;;7.61;100.00;100075.13;4977254;28;20204;-78
2022/03/25 04:43:38;;;;;;;41.93;21.57;;;;;;;7.49;100.00;100077.38;4985194;28;20231;-78
2022/03/25 04:46:08;;;;;;;34.53;20.90;;;;;;;7.72;100.00;100080.00;4997406;28;20191;-78
2022/03/25 04:48:37;;;;;;;38.13;22.97;;;;;;;7.71;100.00;100083.56;5006420;28;20199;-78
2022/03/25 04:51:08;;;;;;;40.60;22.43;;;;;;;7.77;100.00;100085.13;5003308;28;20208;-78
2022/03/25 04:53:37;;;;;;;35.53;22.40;;;;;;;7.82;100.00;100075.28;5000792;28;20212;-78
2022/03/25 04:56:06;;;;;;;38.27;22.23;;;;;;;7.79;100.00;100083.28;5002793;28;20612;-78
2022/03/25 04:58:34;;;;;;;37.43;21.70;;;;;;;7.84;100.00;100083.97;4998760;28;20650;-78
2022/03/25 05:01:03;;;;;;;41.40;21.83;;;;;;;7.82;100.00;100085.81;4999777;28;20195;-78
2022/03/25 05:03:31;;;;;;;40.37;23.03;;;;;;;7.61;100.00;100085.69;5003585;28;20202;-77
2022/03/25 05:06:00;;;;;;;38.67;22.03;;;;;;;7.56;100.00;100086.78;4997646;28;20191;-78
2022/03/25 05:08:32;;;;;;;37.27;22.73;;;;;;;7.52;100.00;100095.69;4998077;28;20657;-78
2022/03/25 05:11:05;;;;;;;36.70;21.47;;;;;;;7.43;100.00;100094.25;4993650;28;20193;-78
2022/03/25 05:13:33;;;;;;;39.30;22.57;;;;;;;7.55;100.00;100092.97;5028615;28;20217;-78
2022/03/25 05:16:02;;;;;;;42.50;22.30;;;;;;;7.61;100.00;100098.84;5028794;28;20194;-78
2022/03/25 05:18:30;;;;;;;39.50;22.57;;;;;;;7.56;100.00;100098.19;5033913;28;20258;-78
2022/03/25 05:21:00;;;;;;;38.77;22.53;;;;;;;7.49;100.00;100104.59;5022881;28;20204;-78
2022/03/25 05:23:29;;;;;;;42.87;23.40;;;;;;;7.42;100.00;100103.94;5024950;28;20205;-78
2022/03/25 05:25:58;;;;;;;40.73;21.77;;;;;;;7.34;100.00;100103.38;5033804;28;20236;-78
2022/03/25 05:28:27;;;;;;;40.83;21.63;;;;;;;7.38;100.00;100107.63;5029409;28;20197;-78
2022/03/25 05:30:58;;;;;;;35.83;22.00;;;;;;;7.43;100.00;100104.81;5021499;28;20237;-78
2022/03/25 05:33:27;;;;;;;36.80;21.97;;;;;;;7.50;100.00;100114.22;4992923;28;20218;-78
2022/03/25 05:35:55;;;;;;;36.70;22.03;;;;;;;7.46;100.00;100107.34;4992258;28;20515;-78
2022/03/25 05:38:23;;;;;;;35.60;21.40;;;;;;;7.45;100.00;100108.25;5000164;28;20207;-78
2022/03/25 05:40:53;;;;;;;43.20;22.73;;;;;;;7.43;100.00;100110.06;4996181;28;20199;-78
2022/03/25 05:43:22;;;;;;;40.87;22.23;;;;;;;7.55;100.00;100112.28;5001049;28;20223;-77
2022/03/25 05:45:50;;;;;;;37.17;21.43;;;;;;;7.57;100.00;100109.59;4999265;28;20521;-77
2022/03/25 05:48:18;;;;;;;40.00;22.37;;;;;;;7.51;100.00;100110.66;5023553;28;20288;-78
2022/03/25 05:50:47;;;;;;;38.10;20.60;;;;;;;7.69;100.00;100111.78;5024091;28;20194;-78
2022/03/25 05:53:15;;;;;;;38.40;20.77;;;;;;;7.73;100.00;100116.88;5029617;28;20222;-77
2022/03/25 05:55:44;;;;;;;37.47;22.53;;;;;;;7.69;100.00;100117.03;5025799;28;20190;-77
2022/03/25 05:58:14;;;;;;;38.47;21.33;;;;;;;7.60;100.00;100115.59;5028261;28;20232;-77
2022/03/25 06:00:42;;;;;;;40.00;21.73;;;;;;;7.65;100.00;100115.44;5027496;28;20240;-77
2022/03/25 06:03:11;;;;;;;38.17;22.33;;;;;;;7.79;100.00;100126.34;5029327;28;20189;-77
2022/03/25 06:05:40;;;;;;;33.07;19.93;;;;;;;7.84;100.00;100120.91;5026204;28;20306;-77
2022/03/25 06:08:08;;;;;;;32.77;20.20;;;;;;;7.93;100.00;100123.19;5025522;28;20202;-77
2022/03/25 06:10:37;;;;;;;38.57;21.60;;;;;;;7.99;100.00;100123.81;5002118;28;20207;-78
2022/03/25 06:13:06;;;;;;;36.33;20.13;;;;;;;8.04;100.00;100128.94;5001422;28;20670;-77
2022/03/25 06:15:37;;;;;;;38.17;20.67;;;;;;;8.14;100.00;100119.75;4992695;28;20223;-78
2022/03/25 06:18:05;;;;;;;29.50;19.20;;;;;;;8.14;100.00;100116.25;4998481;28;20191;-77
2022/03/25 06:20:33;;;;;;;35.17;21.10;;;;;;;8.08;100.00;100124.38;4991183;28;20211;-77
2022/03/25 06:23:02;;;;;;;40.07;20.90;;;;;;;7.95;100.00;100121.34;5000843;28;20192;-78
2022/03/25 06:25:31;;;;;;;34.20;20.57;;;;;;;8.06;100.00;100119.16;5002345;28;20199;-78
2022/03/25 06:28:01;;;;;;;38.77;20.63;;;;;;;7.99;100.00;100120.31;5002314;28;20214;-78
2022/03/25 06:30:34;;;;;;;32.50;19.50;;;;;;;7.84;100.00;100128.81;4993007;28;20203;-77
2022/03/25 06:33:06;;;;;;;35.87;19.57;;;;;;;7.96;100.00;100123.06;4992949;28;20673;-78
2022/03/25 06:35:35;;;;;;;34.10;20.30;;;;;;;7.85;100.00;100125.25;5001038;28;20283;-78
2022/03/25 06:38:05;;;;;;;36.67;20.70;;;;;;;8.06;100.00;100131.50;4995641;28;20272;-78
2022/03/25 06:40:33;;;;;;;34.27;20.20;;;;;;;8.19;100.00;100125.69;5004598;28;20199;-77
2022/03/25 06:43:01;;;;;;;36.37;22.03;;;;;;;8.08;100.00;100124.38;5002963;28;20223;-77
2022/03/25 06:45:31;;;;;;;35.50;21.00;;;;;;;8.25;100.00;100129.88;5001459;28;20195;-78
2022/03/25 06:47:59;;;;;;;37.87;20.97;;;;;;;8.40;100.00;100136.38;4998153;28;20260;-77
2022/03/25 06:50:30;;;;;;;43.53;21.60;;;;;;;8.49;100.00;100144.81;4998281;28;20198;-78
2022/03/25 06:53:01;;;;;;;31.00;20.27;;;;;;;8.45;100.00;100144.97;4999024;28;20199;-77
2022/03/25 06:55:32;;;;;;;34.97;20.97;;;;;;;8.56;100.00;100140.97;5018762;28;20220;-78
2022/03/25 06:58:02;;;;;;;37.10;20.90;;;;;;;8.81;100.00;100140.84;5051970;28;20189;-78
2022/03/25 07:00:32;;;;;;;40.27;21.83;;;;;;;8.90;100.00;100144.91;5043935;28;20208;-78
2022/03/25 07:03:01;;;;;;;39.90;21.83;;;;;;;9.01;100.00;100145.31;5046992;28;20197;-78
2022/03/25 07:05:33;;;;;;;34.93;21.83;;;;;;;9.03;100.00;100151.38;5046691;28;20637;-78
2022/03/25 07:08:01;;;;;;;35.27;20.80;;;;;;;9.04;100.00;100155.75;5049099;28;20193;-79
2022/03/25 07:10:31;;;;;;;44.93;22.97;;;;;;;9.16;100.00;100157.00;5032724;28;20185;-78
2022/03/25 07:13:00;;;;;;;35.93;21.37;;;;;;;9.07;100.00;100144.19;5047003;28;20193;-78
2022/03/25 07:15:29;;;;;;;40.73;21.20;;;;;;;9.31;100.00;100152.88;5051694;28;20219;-78
2022/03/25 07:17:58;;;;;;;40.90;21.83;;;;;;;9.23;100.00;100139.13;5045499;28;20200;-77
2022/03/25 07:20:27;;;;;;;38.90;21.57;;;;;;;9.30;100.00;100149.38;5010530;28;20215;-78
2022/03/25 07:22:58;;;;;;;35.07;20.90;;;;;;;9.33;100.00;100145.72;5000995;28;20214;-78
2022/03/25 07:25:27;;;;;;;36.00;22.10;;;;;;;9.47;100.00;100146.00;4996787;28;20194;-79
2022/03/25 07:27:56;;;;;;;40.27;22.63;;;;;;;9.56;100.00;100142.97;5005140;28;20244;-79
2022/03/25 07:30:24;;;;;;;41.27;22.67;;;;;;;9.67;100.00;100143.34;5011651;28;20194;-78
2022/03/25 07:32:53;;;;;;;37.67;21.60;;;;;;;9.93;100.00;100136.84;5002657;28;20206;-78
2022/03/25 07:35:21;;;;;;;37.57;22.13;;;;;;;10.03;100.00;100142.59;5004007;28;20230;-78
2022/03/25 07:37:49;;;;;;;40.13;23.20;;;;;;;10.23;100.00;100139.03;5004229;28;20197;-78
2022/03/25 07:40:19;;;;;;;39.53;23.17;;;;;;;10.37;100.00;100141.06;5001911;28;20646;-78
2022/03/25 07:42:48;;;;;;;37.30;21.87;;;;;;;10.41;100.00;100134.66;5003063;28;20241;-78
2022/03/25 07:45:16;;;;;;;35.40;22.90;;;;;;;10.53;100.00;100140.25;5003960;28;20202;-79
2022/03/25 07:47:47;;;;;;;37.10;23.13;;;;;;;10.60;100.00;100152.25;5007521;28;20198;-78
2022/03/25 07:50:18;;;;;;;36.73;22.60;;;;;;;10.41;100.00;100143.47;5010345;28;20193;-78
2022/03/25 07:52:48;;;;;;;34.80;23.03;;;;;;;10.46;100.00;100161.81;4999785;28;20195;-78
2022/03/25 07:55:18;;;;;;;43.37;24.47;;;;;;;10.58;100.00;100148.84;4991084;28;20219;-79
2022/03/25 07:57:48;;;;;;;41.37;24.07;;;;;;;10.72;100.00;100145.53;4991292;28;20207;-78
2022/03/25 08:00:18;;;;;;;41.83;23.30;;;;;;;10.94;100.00;100152.41;5002018;28;20249;-78
2022/03/25 08:02:47;;;;;;;38.03;24.70;;;;;;;11.26;100.00;100156.09;4996224;28;20203;-79
2022/03/25 08:05:17;;;;;;;43.70;24.83;;;;;;;11.34;98.18;100145.97;4998236;28;20210;-79
2022/03/25 08:07:48;;;;;;;39.93;24.33;;;;;;;11.42;98.34;100154.41;4997376;28;20230;-79
2022/03/25 08:10:18;;;;;;;44.73;25.17;;;;;;;11.33;96.40;100150.41;5000546;28;20191;-79
2022/03/25 08:12:49;;;;;;;42.43;25.53;;;;;;;11.47;95.94;100152.34;4997292;28;20312;-79
2022/03/25 08:15:20;;;;;;;43.30;25.33;;;;;;;11.67;95.97;100162.78;4997617;28;20685;-79
2022/03/25 08:17:54;;;;;;;42.30;25.40;;;;;;;11.78;93.77;100164.91;5001578;28;20207;-79
2022/03/25 08:20:25;;;;;;;43.20;25.40;;;;;;;11.79;91.94;100163.09;5000106;28;20197;-79
2022/03/25 08:22:55;;;;;;;43.57;26.00;;;;;;;11.90;91.71;100168.72;4994937;28;20245;-78
2022/03/25 08:28:11;;;;;;;43.07;26.50;;;;;;;12.07;88.88;100178.44;4990797;28;20767;-78
2022/03/25 08:30:41;;;;;;;43.50;26.73;;;;;;;12.16;89.13;100173.50;4996053;28;20199;-78
2022/03/25 08:33:10;;;;;;;43.47;27.60;;;;;;;12.35;84.16;100178.63;4996380;28;20191;-78
2022/03/25 08:35:40;;;;;;;43.57;27.83;;;;;;;12.58;84.17;100183.56;4997558;28;20223;-78
2022/03/25 08:38:09;;;;;;;43.50;27.30;;;;;;;12.67;86.06;100182.19;4991472;28;20661;-78
2022/03/25 08:40:39;;;;;;;42.60;28.23;;;;;;;12.54;81.73;100183.78;4994445;28;20244;-77
2022/03/25 08:43:29;;;;;;;43.73;26.43;;;;;;;12.77;80.02;100179.88;4989630;28;20254;-78
2022/03/25 08:45:57;;;;;;;44.77;25.90;;;;;;;12.74;80.45;100180.03;4998731;28;20211;-78
2022/03/25 08:48:26;;;;;;;44.93;26.47;;;;;;;12.80;80.78;100185.84;5000746;28;20199;-78
2022/03/25 08:50:55;;;;;;;49.00;28.27;;;;;;;12.99;76.67;100176.84;4988066;28;20296;-78
2022/03/25 08:53:24;;;;;;;49.70;27.47;;;;;;;13.25;75.32;100184.19;4998169;28;20191;-79
2022/03/25 08:55:52;;;;;;;41.47;27.83;;;;;;;13.08;74.63;100185.13;4997421;28;20219;-78
2022/03/25 08:58:20;;;;;;;43.10;27.10;;;;;;;13.61;73.03;100175.84;4997549;28;20206;-78
2022/03/25 09:00:52;;;;;;;48.97;28.60;;;;;;;13.56;71.87;100182.38;5026175;28;20198;-78
2022/03/25 09:03:23;;;;;;;39.43;27.23;;;;;;;13.74;71.06;100190.13;5024891;28;20205;-77
2022/03/25 09:05:52;;;;;;;46.37;28.00;;;;;;;14.00;68.26;100187.69;5022415;28;20198;-78
2022/03/25 09:08:24;;;;;;;40.27;26.47;;;;;;;14.07;65.15;100186.31;5030414;28;20650;-78
2022/03/25 09:10:55;;;;;;;42.67;27.30;;;;;;;13.86;66.37;100193.84;5021244;28;20189;-78
2022/03/25 09:13:26;;;;;;;40.67;26.73;;;;;;;13.94;68.14;100188.91;5022812;28;20284;-78
2022/03/25 09:15:56;;;;;;;38.43;26.13;;;;;;;13.96;67.26;100194.13;5025147;28;20218;-78
2022/03/25 09:18:24;;;;;;;38.07;26.57;;;;;;;13.81;66.87;100184.44;5030378;28;20307;-78
2022/03/25 09:20:52;;;;;;;38.83;25.57;;;;;;;14.07;68.42;100188.13;5022698;28;20186;-78
2022/03/25 09:23:21;;;;;;;38.70;26.30;;;;;;;14.49;66.95;100181.97;5027312;28;20197;-78
2022/03/25 09:25:50;;;;;;;43.60;26.17;;;;;;;14.51;67.37;100185.38;5003660;28;20199;-78
2022/03/25 09:28:21;;;;;;;44.60;27.17;;;;;;;14.22;68.60;100184.53;4995770;28;20238;-77
2022/03/25 09:30:50;;;;;;;42.70;25.43;;;;;;;14.74;67.65;100190.09;4997529;28;20195;-78
2022/03/25 09:33:20;;;;;;;41.63;25.27;;;;;;;14.63;68.00;100187.25;4993006;28;20199;-78
2022/03/25 09:35:49;;;;;;;41.53;26.43;;;;;;;14.99;66.26;100175.16;5004212;28;20273;-79
2022/03/25 09:38:17;;;;;;;41.63;27.33;;;;;;;15.03;66.60;100182.84;5003127;28;20203;-79
2022/03/25 09:40:48;;;;;;;44.07;27.13;;;;;;;15.47;64.83;100184.38;4994510;28;20635;-79
2022/03/25 09:43:19;;;;;;;43.33;26.63;;;;;;;15.71;62.63;100180.03;5000352;28;20245;-79
2022/03/25 09:45:48;;;;;;;40.27;28.33;;;;;;;15.81;59.44;100187.44;5002808;28;20206;-79
2022/03/25 09:48:17;;;;;;;45.00;28.13;;;;;;;15.96;59.60;100184.56;4997870;28;20276;-79
2022/03/25 09:50:47;;;;;;;41.33;27.37;;;;;;;15.95;55.77;100185.53;5000134;28;20552;-78
2022/03/25 09:53:36;;;;;;;44.70;29.10;;;;;;;16.53;54.95;100186.75;4993017;28;20248;-78
2022/03/25 09:56:04;;;;;;;44.53;29.47;;;;;;;16.76;53.06;100190.44;4998955;28;20697;-79
2022/03/25 09:58:34;;;;;;;43.10;28.03;;;;;;;16.25;51.96;100181.66;5029163;28;20313;-79
2022/03/25 10:01:02;;;;;;;41.57;28.63;;;;;;;16.32;52.81;100182.94;5033093;28;20221;-78
2022/03/25 10:03:36;;;;;;;45.50;28.83;;;;;;;16.60;52.62;100179.13;5033390;28;20198;-79
2022/03/25 10:06:12;;;;;;;43.80;28.27;;;;;;;16.44;52.33;100182.06;5027605;28;20201;-78
2022/03/25 10:08:46;;;;;;;44.40;28.17;;;;;;;16.51;52.43;100179.78;5029740;28;20656;-78
2022/03/25 10:11:22;;;;;;;41.03;26.90;;;;;;;16.92;50.51;100186.66;5031832;28;20209;-79
2022/03/25 10:14:11;;;;;;;46.20;29.13;;;;;;;17.25;49.65;100185.94;5027760;28;20613;-79
2022/03/25 10:16:40;;;;;;;40.60;27.27;;;;;;;17.26;48.97;100183.16;5014327;28;20711;-79
2022/03/25 10:19:10;;;;;;;40.70;27.67;;;;;;;17.56;48.96;100190.69;4991923;28;20233;-79
2022/03/25 10:21:56;;;;;;;43.83;28.67;;;;;;;17.40;48.00;100191.00;4996868;28;20199;-79
2022/03/25 10:24:39;;;;;;;44.87;29.33;;;;;;;17.26;45.11;100177.78;5003266;28;20956;-79
2022/03/25 10:27:17;;;;;;;45.67;29.47;;;;;;;17.49;45.42;100193.97;4998647;28;20199;-79
2022/03/25 10:29:46;;;;;;;44.03;27.80;;;;;;;17.69;45.59;100186.13;4995135;28;20290;-79
2022/03/25 10:32:18;;;;;;;48.07;27.77;;;;;;;17.83;45.68;100184.22;4997926;28;20286;-79
2022/03/25 10:35:01;;;;;;;53.60;28.43;;;;;;;18.37;45.89;100187.06;4998904;28;20211;-79
2022/03/25 10:37:30;;;;;;;44.07;28.60;;;;;;;18.08;44.66;100186.69;5002732;28;20225;-79
2022/03/25 10:39:59;;;;;;;42.50;30.80;;;;;;;17.74;45.93;100183.09;4999683;28;20721;-79
2022/03/25 10:42:27;;;;;;;40.20;28.03;;;;;;;18.38;44.59;100182.53;5003829;28;20211;-80
2022/03/25 10:44:59;;;;;;;45.17;30.33;;;;;;;18.36;46.65;100188.03;4997877;28;20207;-79
2022/03/25 10:47:28;;;;;;;42.23;28.93;;;;;;;18.70;44.99;100193.38;4991340;28;20196;-79
2022/03/25 10:50:13;;;;;;;45.50;28.97;;;;;;;18.81;44.95;100185.31;4997005;28;20210;-80
2022/03/25 10:52:44;;;;;;;42.37;27.40;;;;;;;19.10;43.75;100181.06;4997189;28;20218;-79
2022/03/25 10:55:20;;;;;;;42.20;29.97;;;;;;;18.79;43.71;100182.75;4996519;28;20195;-79
2022/03/25 10:57:54;;;;;;;43.13;28.17;;;;;;;19.04;43.85;100181.59;5001723;28;20226;-79
2022/03/25 11:00:23;;;;;;;39.63;28.57;;;;;;;18.33;43.63;100190.09;5002016;28;20195;-79
2022/03/25 11:02:54;;;;;;;39.87;27.60;;;;;;;18.86;43.74;100183.13;5051958;28;20193;-79
2022/03/25 11:05:23;;;;;;;42.30;28.97;;;;;;;18.65;43.03;100188.41;5046923;28;20205;-79
2022/03/25 11:07:53;;;;;;;38.20;28.27;;;;;;;19.01;43.50;100180.97;5045453;28;20684;-79
2022/03/25 11:10:22;;;;;;;50.07;33.80;;;;;;;18.79;44.68;100179.22;5046592;28;20193;-80
2022/03/25 11:12:54;;;;;;;42.13;28.20;;;;;;;19.57;42.56;100183.47;5046696;28;20189;-79
2022/03/25 11:15:24;;;;;;;40.50;27.87;;;;;;;19.13;42.31;100175.47;5045431;28;20205;-79
2022/03/25 11:17:52;;;;;;;40.70;28.53;;;;;;;19.47;41.15;100179.84;5044285;28;20251;-79
2022/03/25 11:20:25;;;;;;;39.77;30.03;;;;;;;19.90;38.71;100183.28;5030101;28;20256;-79
2022/03/25 11:23:14;;;;;;;39.42;28.60;;;;;;;20.02;38.98;100168.78;5001346;28;20282;-79
2022/03/25 11:25:46;;;;;;;40.65;29.02;;;;;;;20.15;38.78;100173.06;5063499;28;20306;-79